Terminal Aerodrome Forecast
Issued by NWS

Home | Current Version | Previous Version | Text Only | Print | Product List | Glossary On
Versions: 1 2 3 4 5 6 7 8 9 10 11 12 13 14 15 16 17 18 19 20 21 22 23
015
FTUS44 KLZK 061618 AAB
TAFBPK
TAF AMD
KBPK 061618Z 0616/0712 35007KT P6SM BKN013
     FM062000 34008G18KT P6SM FEW250
     FM062200 35008KT P6SM BKN250=

USA.gov is the U.S. government's official web portal to all federal, state and local government web resources and services.